sensor_id;sensor_type;location;lat;lon;timestamp;P1;durP1;ratioP1;P2;durP2;ratioP2
48623;SDS011;34422;45.802;16.114;2023-12-20T00:01:05;281.27;;;155.10;;
48623;SDS011;34422;45.802;16.114;2023-12-20T00:03:55;340.00;;;188.20;;
48623;SDS011;34422;45.802;16.114;2023-12-20T00:06:46;335.27;;;181.82;;
48623;SDS011;34422;45.802;16.114;2023-12-20T00:09:28;403.75;;;200.85;;
48623;SDS011;34422;45.802;16.114;2023-12-20T00:18:59;316.83;;;157.20;;
48623;SDS011;34422;45.802;16.114;2023-12-20T00:22:05;256.00;;;139.43;;
48623;SDS011;34422;45.802;16.114;2023-12-20T00:28:15;256.92;;;140.27;;
48623;SDS011;34422;45.802;16.114;2023-12-20T00:31:09;293.25;;;150.23;;
48623;SDS011;34422;45.802;16.114;2023-12-20T00:34:04;286.63;;;142.90;;
48623;SDS011;34422;45.802;16.114;2023-12-20T00:36:46;208.70;;;118.10;;
48623;SDS011;34422;45.802;16.114;2023-12-20T00:39:56;226.65;;;120.63;;
48623;SDS011;34422;45.802;16.114;2023-12-20T00:42:48;208.27;;;113.00;;
48623;SDS011;34422;45.802;16.114;2023-12-20T00:49:19;219.15;;;112.00;;
48623;SDS011;34422;45.802;16.114;2023-12-20T00:56:14;206.50;;;109.47;;
48623;SDS011;34422;45.802;16.114;2023-12-20T00:59:06;186.03;;;96.23;;
48623;SDS011;34422;45.802;16.114;2023-12-20T01:02:07;201.23;;;110.32;;
48623;SDS011;34422;45.802;16.114;2023-12-20T01:08:28;217.70;;;108.10;;
48623;SDS011;34422;45.802;16.114;2023-12-20T01:15:14;279.20;;;126.32;;
48623;SDS011;34422;45.802;16.114;2023-12-20T01:27:52;290.25;;;123.93;;
48623;SDS011;34422;45.802;16.114;2023-12-20T01:31:09;223.38;;;112.47;;
48623;SDS011;34422;45.802;16.114;2023-12-20T01:34:36;195.05;;;107.05;;
48623;SDS011;34422;45.802;16.114;2023-12-20T01:38:08;285.95;;;131.38;;
48623;SDS011;34422;45.802;16.114;2023-12-20T01:41:25;314.27;;;136.10;;
48623;SDS011;34422;45.802;16.114;2023-12-20T01:47:42;312.02;;;133.88;;
48623;SDS011;34422;45.802;16.114;2023-12-20T01:50:42;347.38;;;142.65;;
48623;SDS011;34422;45.802;16.114;2023-12-20T01:53:19;292.70;;;130.23;;
48623;SDS011;34422;45.802;16.114;2023-12-20T01:56:08;260.73;;;124.80;;
48623;SDS011;34422;45.802;16.114;2023-12-20T01:58:48;336.20;;;141.63;;
48623;SDS011;34422;45.802;16.114;2023-12-20T02:01:23;219.30;;;113.22;;
48623;SDS011;34422;45.802;16.114;2023-12-20T02:03:54;352.67;;;145.15;;
48623;SDS011;34422;45.802;16.114;2023-12-20T02:07:08;250.00;;;118.28;;
48623;SDS011;34422;45.802;16.114;2023-12-20T02:10:12;206.68;;;113.90;;
48623;SDS011;34422;45.802;16.114;2023-12-20T02:13:13;243.93;;;117.30;;
48623;SDS011;34422;45.802;16.114;2023-12-20T02:17:10;199.57;;;104.38;;
48623;SDS011;34422;45.802;16.114;2023-12-20T02:20:21;210.43;;;112.57;;
48623;SDS011;34422;45.802;16.114;2023-12-20T02:23:30;218.02;;;113.47;;
48623;SDS011;34422;45.802;16.114;2023-12-20T02:26:15;204.90;;;109.63;;
48623;SDS011;34422;45.802;16.114;2023-12-20T02:29:30;192.63;;;103.07;;
48623;SDS011;34422;45.802;16.114;2023-12-20T02:33:31;157.23;;;84.63;;
48623;SDS011;34422;45.802;16.114;2023-12-20T02:36:54;158.13;;;88.40;;
48623;SDS011;34422;45.802;16.114;2023-12-20T02:40:36;155.30;;;85.40;;
48623;SDS011;34422;45.802;16.114;2023-12-20T02:44:15;239.70;;;104.37;;
48623;SDS011;34422;45.802;16.114;2023-12-20T02:51:16;174.30;;;92.90;;
48623;SDS011;34422;45.802;16.114;2023-12-20T02:54:56;173.50;;;92.87;;
48623;SDS011;34422;45.802;16.114;2023-12-20T02:58:09;174.87;;;89.07;;
48623;SDS011;34422;45.802;16.114;2023-12-20T03:01:11;157.20;;;87.47;;
48623;SDS011;34422;45.802;16.114;2023-12-20T03:04:08;161.93;;;88.07;;
48623;SDS011;34422;45.802;16.114;2023-12-20T03:07:40;169.83;;;88.23;;
48623;SDS011;34422;45.802;16.114;2023-12-20T03:11:00;176.00;;;93.53;;
48623;SDS011;34422;45.802;16.114;2023-12-20T03:17:47;176.03;;;88.23;;
48623;SDS011;34422;45.802;16.114;2023-12-20T03:21:03;167.50;;;88.63;;
48623;SDS011;34422;45.802;16.114;2023-12-20T03:24:47;224.77;;;101.20;;
48623;SDS011;34422;45.802;16.114;2023-12-20T03:30:26;185.60;;;92.33;;
48623;SDS011;34422;45.802;16.114;2023-12-20T03:33:29;196.63;;;91.63;;
48623;SDS011;34422;45.802;16.114;2023-12-20T03:36:31;158.90;;;83.93;;
48623;SDS011;34422;45.802;16.114;2023-12-20T03:46:13;165.93;;;87.03;;
48623;SDS011;34422;45.802;16.114;2023-12-20T03:49:11;183.33;;;94.20;;
48623;SDS011;34422;45.802;16.114;2023-12-20T03:51:59;169.95;;;88.80;;
48623;SDS011;34422;45.802;16.114;2023-12-20T03:54:34;199.40;;;96.27;;
48623;SDS011;34422;45.802;16.114;2023-12-20T03:57:18;178.33;;;91.90;;
48623;SDS011;34422;45.802;16.114;2023-12-20T03:59:59;192.07;;;93.65;;
48623;SDS011;34422;45.802;16.114;2023-12-20T04:02:43;180.00;;;92.70;;
48623;SDS011;34422;45.802;16.114;2023-12-20T04:05:28;178.77;;;94.97;;
48623;SDS011;34422;45.802;16.114;2023-12-20T04:08:09;164.88;;;91.05;;
48623;SDS011;34422;45.802;16.114;2023-12-20T04:10:59;181.13;;;91.53;;
48623;SDS011;34422;45.802;16.114;2023-12-20T04:13:39;183.07;;;93.97;;
48623;SDS011;34422;45.802;16.114;2023-12-20T04:16:25;158.57;;;88.90;;
48623;SDS011;34422;45.802;16.114;2023-12-20T04:19:25;171.10;;;93.37;;
48623;SDS011;34422;45.802;16.114;2023-12-20T04:22:41;167.73;;;91.97;;
48623;SDS011;34422;45.802;16.114;2023-12-20T04:25:50;164.03;;;86.83;;
48623;SDS011;34422;45.802;16.114;2023-12-20T04:28:25;201.97;;;101.70;;
48623;SDS011;34422;45.802;16.114;2023-12-20T04:31:01;218.40;;;103.87;;
48623;SDS011;34422;45.802;16.114;2023-12-20T04:33:39;194.57;;;100.23;;
48623;SDS011;34422;45.802;16.114;2023-12-20T04:36:16;209.90;;;103.20;;
48623;SDS011;34422;45.802;16.114;2023-12-20T04:39:21;175.33;;;95.43;;
48623;SDS011;34422;45.802;16.114;2023-12-20T04:42:39;162.85;;;89.72;;
48623;SDS011;34422;45.802;16.114;2023-12-20T04:46:10;187.17;;;94.67;;
48623;SDS011;34422;45.802;16.114;2023-12-20T04:53:34;150.57;;;81.80;;
48623;SDS011;34422;45.802;16.114;2023-12-20T04:59:39;174.33;;;84.33;;
48623;SDS011;34422;45.802;16.114;2023-12-20T05:06:25;151.20;;;74.57;;
48623;SDS011;34422;45.802;16.114;2023-12-20T05:09:21;151.53;;;78.10;;
48623;SDS011;34422;45.802;16.114;2023-12-20T05:12:12;160.00;;;77.57;;
48623;SDS011;34422;45.802;16.114;2023-12-20T05:15:25;140.27;;;76.40;;
48623;SDS011;34422;45.802;16.114;2023-12-20T05:18:33;170.73;;;79.00;;
48623;SDS011;34422;45.802;16.114;2023-12-20T05:25:02;136.80;;;72.87;;
48623;SDS011;34422;45.802;16.114;2023-12-20T05:28:12;140.93;;;71.30;;
48623;SDS011;34422;45.802;16.114;2023-12-20T05:34:54;148.33;;;75.73;;
48623;SDS011;34422;45.802;16.114;2023-12-20T05:37:29;149.97;;;78.30;;
48623;SDS011;34422;45.802;16.114;2023-12-20T05:49:02;143.65;;;72.47;;
48623;SDS011;34422;45.802;16.114;2023-12-20T05:53:05;130.07;;;66.50;;
48623;SDS011;34422;45.802;16.114;2023-12-20T06:03:44;162.30;;;73.60;;
48623;SDS011;34422;45.802;16.114;2023-12-20T06:06:25;145.30;;;73.37;;
48623;SDS011;34422;45.802;16.114;2023-12-20T06:09:35;144.37;;;69.97;;
48623;SDS011;34422;45.802;16.114;2023-12-20T06:16:12;123.37;;;63.97;;
48623;SDS011;34422;45.802;16.114;2023-12-20T06:19:22;146.03;;;72.90;;
48623;SDS011;34422;45.802;16.114;2023-12-20T06:22:17;164.97;;;74.03;;
48623;SDS011;34422;45.802;16.114;2023-12-20T06:25:18;194.45;;;83.15;;
48623;SDS011;34422;45.802;16.114;2023-12-20T06:28:20;193.83;;;102.67;;
48623;SDS011;34422;45.802;16.114;2023-12-20T06:30:50;182.33;;;87.10;;
48623;SDS011;34422;45.802;16.114;2023-12-20T06:33:25;168.20;;;84.90;;
48623;SDS011;34422;45.802;16.114;2023-12-20T06:35:54;157.23;;;82.93;;
48623;SDS011;34422;45.802;16.114;2023-12-20T06:38:24;192.87;;;91.47;;
48623;SDS011;34422;45.802;16.114;2023-12-20T06:41:22;166.05;;;81.25;;
48623;SDS011;34422;45.802;16.114;2023-12-20T06:44:28;175.40;;;83.03;;
48623;SDS011;34422;45.802;16.114;2023-12-20T06:47:23;191.73;;;79.63;;
48623;SDS011;34422;45.802;16.114;2023-12-20T06:50:14;131.30;;;68.80;;
48623;SDS011;34422;45.802;16.114;2023-12-20T06:53:06;136.27;;;73.00;;
48623;SDS011;34422;45.802;16.114;2023-12-20T06:55:48;146.47;;;70.20;;
48623;SDS011;34422;45.802;16.114;2023-12-20T07:02:05;118.20;;;65.67;;
48623;SDS011;34422;45.802;16.114;2023-12-20T07:05:23;146.43;;;71.23;;
48623;SDS011;34422;45.802;16.114;2023-12-20T07:08:12;151.90;;;75.35;;
48623;SDS011;34422;45.802;16.114;2023-12-20T07:10:58;213.30;;;91.53;;
48623;SDS011;34422;45.802;16.114;2023-12-20T07:13:27;150.47;;;74.27;;
48623;SDS011;34422;45.802;16.114;2023-12-20T07:16:10;141.90;;;75.60;;
48623;SDS011;34422;45.802;16.114;2023-12-20T07:18:40;174.50;;;80.97;;
48623;SDS011;34422;45.802;16.114;2023-12-20T07:21:10;189.30;;;83.50;;
48623;SDS011;34422;45.802;16.114;2023-12-20T07:23:43;184.85;;;84.70;;
48623;SDS011;34422;45.802;16.114;2023-12-20T07:26:10;208.80;;;82.47;;
48623;SDS011;34422;45.802;16.114;2023-12-20T07:28:37;142.90;;;69.78;;
48623;SDS011;34422;45.802;16.114;2023-12-20T07:31:05;158.63;;;76.40;;
48623;SDS011;34422;45.802;16.114;2023-12-20T07:33:31;172.53;;;81.83;;
48623;SDS011;34422;45.802;16.114;2023-12-20T07:35:59;138.73;;;70.40;;
48623;SDS011;34422;45.802;16.114;2023-12-20T07:38:30;148.47;;;74.27;;
48623;SDS011;34422;45.802;16.114;2023-12-20T07:41:17;122.30;;;63.47;;
48623;SDS011;34422;45.802;16.114;2023-12-20T07:43:48;143.60;;;67.68;;
48623;SDS011;34422;45.802;16.114;2023-12-20T07:46:19;134.30;;;64.47;;
48623;SDS011;34422;45.802;16.114;2023-12-20T07:49:09;138.60;;;69.28;;
48623;SDS011;34422;45.802;16.114;2023-12-20T07:51:39;153.90;;;70.30;;
48623;SDS011;34422;45.802;16.114;2023-12-20T07:54:12;165.52;;;74.20;;
48623;SDS011;34422;45.802;16.114;2023-12-20T07:56:39;151.90;;;71.73;;
48623;SDS011;34422;45.802;16.114;2023-12-20T07:59:06;157.93;;;77.50;;
48623;SDS011;34422;45.802;16.114;2023-12-20T08:01:33;151.57;;;75.00;;
48623;SDS011;34422;45.802;16.114;2023-12-20T08:04:00;150.00;;;71.28;;
48623;SDS011;34422;45.802;16.114;2023-12-20T08:06:27;139.90;;;67.37;;
48623;SDS011;34422;45.802;16.114;2023-12-20T08:08:59;155.82;;;74.82;;
48623;SDS011;34422;45.802;16.114;2023-12-20T08:11:26;146.57;;;72.33;;
48623;SDS011;34422;45.802;16.114;2023-12-20T08:13:53;151.45;;;73.65;;
48623;SDS011;34422;45.802;16.114;2023-12-20T08:16:23;137.55;;;68.82;;
48623;SDS011;34422;45.802;16.114;2023-12-20T08:18:51;133.27;;;69.70;;
48623;SDS011;34422;45.802;16.114;2023-12-20T08:21:18;137.65;;;73.97;;
48623;SDS011;34422;45.802;16.114;2023-12-20T08:23:46;126.78;;;71.40;;
48623;SDS011;34422;45.802;16.114;2023-12-20T08:26:14;150.30;;;72.20;;
48623;SDS011;34422;45.802;16.114;2023-12-20T08:28:44;128.25;;;70.72;;
48623;SDS011;34422;45.802;16.114;2023-12-20T08:31:15;126.78;;;64.90;;
48623;SDS011;34422;45.802;16.114;2023-12-20T08:33:43;145.02;;;72.45;;
48623;SDS011;34422;45.802;16.114;2023-12-20T08:36:13;130.23;;;68.93;;
48623;SDS011;34422;45.802;16.114;2023-12-20T08:38:41;143.05;;;75.65;;
48623;SDS011;34422;45.802;16.114;2023-12-20T08:41:08;122.70;;;69.60;;
48623;SDS011;34422;45.802;16.114;2023-12-20T08:43:35;149.50;;;76.38;;
48623;SDS011;34422;45.802;16.114;2023-12-20T08:46:02;140.40;;;75.00;;
48623;SDS011;34422;45.802;16.114;2023-12-20T08:48:29;141.63;;;74.68;;
48623;SDS011;34422;45.802;16.114;2023-12-20T08:50:56;127.18;;;71.25;;
48623;SDS011;34422;45.802;16.114;2023-12-20T08:53:22;127.10;;;71.20;;
48623;SDS011;34422;45.802;16.114;2023-12-20T08:55:49;134.85;;;75.22;;
48623;SDS011;34422;45.802;16.114;2023-12-20T08:58:16;127.65;;;70.88;;
48623;SDS011;34422;45.802;16.114;2023-12-20T09:00:43;125.72;;;69.25;;
48623;SDS011;34422;45.802;16.114;2023-12-20T09:03:10;127.47;;;65.20;;
48623;SDS011;34422;45.802;16.114;2023-12-20T09:05:37;121.28;;;67.95;;
48623;SDS011;34422;45.802;16.114;2023-12-20T09:08:03;142.52;;;77.28;;
48623;SDS011;34422;45.802;16.114;2023-12-20T09:10:31;151.65;;;79.32;;
48623;SDS011;34422;45.802;16.114;2023-12-20T09:12:58;144.40;;;74.13;;
48623;SDS011;34422;45.802;16.114;2023-12-20T09:15:25;141.82;;;74.95;;
48623;SDS011;34422;45.802;16.114;2023-12-20T09:17:53;147.23;;;73.32;;
48623;SDS011;34422;45.802;16.114;2023-12-20T09:20:20;134.20;;;75.85;;
48623;SDS011;34422;45.802;16.114;2023-12-20T09:22:47;154.13;;;81.75;;
48623;SDS011;34422;45.802;16.114;2023-12-20T09:25:14;144.52;;;75.70;;
48623;SDS011;34422;45.802;16.114;2023-12-20T09:27:42;159.32;;;140.88;;
48623;SDS011;34422;45.802;16.114;2023-12-20T09:30:09;131.63;;;109.32;;
48623;SDS011;34422;45.802;16.114;2023-12-20T09:32:36;173.52;;;157.18;;
48623;SDS011;34422;45.802;16.114;2023-12-20T09:35:03;134.07;;;119.72;;
48623;SDS011;34422;45.802;16.114;2023-12-20T09:37:32;149.82;;;134.20;;
48623;SDS011;34422;45.802;16.114;2023-12-20T09:39:59;136.60;;;93.13;;
48623;SDS011;34422;45.802;16.114;2023-12-20T09:42:43;169.73;;;151.95;;
48623;SDS011;34422;45.802;16.114;2023-12-20T09:45:37;97.07;;;71.77;;
48623;SDS011;34422;45.802;16.114;2023-12-20T09:48:07;127.07;;;92.88;;
48623;SDS011;34422;45.802;16.114;2023-12-20T09:50:37;137.60;;;92.53;;
48623;SDS011;34422;45.802;16.114;2023-12-20T09:53:03;132.52;;;79.95;;
48623;SDS011;34422;45.802;16.114;2023-12-20T09:58:02;118.47;;;65.47;;
48623;SDS011;34422;45.802;16.114;2023-12-20T10:00:36;114.50;;;74.43;;
48623;SDS011;34422;45.802;16.114;2023-12-20T10:03:03;208.75;;;190.70;;
48623;SDS011;34422;45.802;16.114;2023-12-20T10:05:36;125.88;;;85.28;;
48623;SDS011;34422;45.802;16.114;2023-12-20T10:08:12;121.13;;;67.93;;
48623;SDS011;34422;45.802;16.114;2023-12-20T10:10:39;127.03;;;68.85;;
48623;SDS011;34422;45.802;16.114;2023-12-20T10:13:06;129.70;;;74.82;;
48623;SDS011;34422;45.802;16.114;2023-12-20T10:15:37;135.35;;;92.97;;
48623;SDS011;34422;45.802;16.114;2023-12-20T10:18:05;123.40;;;70.57;;
48623;SDS011;34422;45.802;16.114;2023-12-20T10:20:32;137.85;;;112.30;;
48623;SDS011;34422;45.802;16.114;2023-12-20T10:22:59;128.82;;;74.10;;
48623;SDS011;34422;45.802;16.114;2023-12-20T10:25:27;121.90;;;73.75;;
48623;SDS011;34422;45.802;16.114;2023-12-20T10:28:10;107.85;;;69.85;;
48623;SDS011;34422;45.802;16.114;2023-12-20T10:30:40;124.20;;;72.30;;
48623;SDS011;34422;45.802;16.114;2023-12-20T10:33:08;139.38;;;93.60;;
48623;SDS011;34422;45.802;16.114;2023-12-20T10:35:36;137.77;;;104.47;;
48623;SDS011;34422;45.802;16.114;2023-12-20T10:38:04;136.10;;;112.38;;
48623;SDS011;34422;45.802;16.114;2023-12-20T10:40:35;131.10;;;112.65;;
48623;SDS011;34422;45.802;16.114;2023-12-20T10:43:05;118.13;;;71.10;;
48623;SDS011;34422;45.802;16.114;2023-12-20T10:45:34;113.80;;;68.68;;
48623;SDS011;34422;45.802;16.114;2023-12-20T10:48:01;116.25;;;76.20;;
48623;SDS011;34422;45.802;16.114;2023-12-20T10:50:28;132.75;;;94.75;;
48623;SDS011;34422;45.802;16.114;2023-12-20T10:52:57;139.05;;;117.70;;
48623;SDS011;34422;45.802;16.114;2023-12-20T10:55:25;117.88;;;89.63;;
48623;SDS011;34422;45.802;16.114;2023-12-20T10:58:09;117.88;;;81.03;;
48623;SDS011;34422;45.802;16.114;2023-12-20T11:00:39;115.80;;;90.03;;
48623;SDS011;34422;45.802;16.114;2023-12-20T11:05:43;111.50;;;68.40;;
48623;SDS011;34422;45.802;16.114;2023-12-20T11:13:47;117.65;;;84.30;;
48623;SDS011;34422;45.802;16.114;2023-12-20T11:16:21;120.82;;;85.40;;
48623;SDS011;34422;45.802;16.114;2023-12-20T11:18:48;127.65;;;98.13;;
48623;SDS011;34422;45.802;16.114;2023-12-20T11:21:17;119.78;;;101.40;;
48623;SDS011;34422;45.802;16.114;2023-12-20T11:23:43;130.30;;;104.63;;
48623;SDS011;34422;45.802;16.114;2023-12-20T11:26:10;122.90;;;101.20;;
48623;SDS011;34422;45.802;16.114;2023-12-20T11:28:37;137.20;;;110.82;;
48623;SDS011;34422;45.802;16.114;2023-12-20T11:31:05;125.57;;;111.88;;
48623;SDS011;34422;45.802;16.114;2023-12-20T11:33:37;140.73;;;106.93;;
48623;SDS011;34422;45.802;16.114;2023-12-20T11:36:14;157.98;;;141.63;;
48623;SDS011;34422;45.802;16.114;2023-12-20T11:38:55;259.05;;;238.13;;
48623;SDS011;34422;45.802;16.114;2023-12-20T11:41:23;147.18;;;133.05;;
48623;SDS011;34422;45.802;16.114;2023-12-20T11:43:54;164.07;;;150.13;;
48623;SDS011;34422;45.802;16.114;2023-12-20T11:46:22;232.68;;;215.68;;
48623;SDS011;34422;45.802;16.114;2023-12-20T11:48:49;193.70;;;177.18;;
48623;SDS011;34422;45.802;16.114;2023-12-20T11:51:16;168.82;;;153.13;;
48623;SDS011;34422;45.802;16.114;2023-12-20T11:53:43;177.18;;;161.32;;
48623;SDS011;34422;45.802;16.114;2023-12-20T11:56:10;268.77;;;250.30;;
48623;SDS011;34422;45.802;16.114;2023-12-20T11:58:38;341.38;;;319.92;;
48623;SDS011;34422;45.802;16.114;2023-12-20T12:01:05;138.27;;;124.63;;
48623;SDS011;34422;45.802;16.114;2023-12-20T12:03:36;137.73;;;124.82;;
48623;SDS011;34422;45.802;16.114;2023-12-20T12:06:03;135.35;;;122.40;;
48623;SDS011;34422;45.802;16.114;2023-12-20T12:08:35;142.80;;;129.63;;
48623;SDS011;34422;45.802;16.114;2023-12-20T12:11:08;157.05;;;142.93;;
48623;SDS011;34422;45.802;16.114;2023-12-20T12:14:30;122.55;;;110.00;;
48623;SDS011;34422;45.802;16.114;2023-12-20T12:16:57;137.88;;;123.93;;
48623;SDS011;34422;45.802;16.114;2023-12-20T12:19:24;163.90;;;149.70;;
48623;SDS011;34422;45.802;16.114;2023-12-20T12:22:05;128.27;;;115.85;;
48623;SDS011;34422;45.802;16.114;2023-12-20T12:24:40;264.85;;;247.02;;
48623;SDS011;34422;45.802;16.114;2023-12-20T12:27:15;273.23;;;255.10;;
48623;SDS011;34422;45.802;16.114;2023-12-20T12:30:00;276.98;;;258.77;;
48623;SDS011;34422;45.802;16.114;2023-12-20T12:32:29;277.67;;;259.40;;
48623;SDS011;34422;45.802;16.114;2023-12-20T12:34:56;346.23;;;325.27;;
48623;SDS011;34422;45.802;16.114;2023-12-20T12:37:25;324.45;;;304.65;;
48623;SDS011;34422;45.802;16.114;2023-12-20T12:39:53;298.02;;;279.88;;
48623;SDS011;34422;45.802;16.114;2023-12-20T12:42:21;267.60;;;250.60;;
48623;SDS011;34422;45.802;16.114;2023-12-20T12:44:52;147.40;;;133.38;;
48623;SDS011;34422;45.802;16.114;2023-12-20T12:47:22;148.43;;;135.38;;
48623;SDS011;34422;45.802;16.114;2023-12-20T12:49:50;159.30;;;143.40;;
48623;SDS011;34422;45.802;16.114;2023-12-20T12:52:18;161.45;;;144.02;;
48623;SDS011;34422;45.802;16.114;2023-12-20T12:54:45;167.23;;;150.27;;
48623;SDS011;34422;45.802;16.114;2023-12-20T12:57:13;161.35;;;145.27;;
48623;SDS011;34422;45.802;16.114;2023-12-20T12:59:42;162.88;;;145.43;;
48623;SDS011;34422;45.802;16.114;2023-12-20T13:02:10;168.57;;;151.80;;
48623;SDS011;34422;45.802;16.114;2023-12-20T13:04:37;190.90;;;173.07;;
48623;SDS011;34422;45.802;16.114;2023-12-20T13:07:04;170.60;;;153.25;;
48623;SDS011;34422;45.802;16.114;2023-12-20T13:09:31;167.15;;;150.07;;
48623;SDS011;34422;45.802;16.114;2023-12-20T13:11:58;156.88;;;139.82;;
48623;SDS011;34422;45.802;16.114;2023-12-20T13:14:25;239.70;;;219.93;;
48623;SDS011;34422;45.802;16.114;2023-12-20T13:16:52;298.10;;;276.65;;
48623;SDS011;34422;45.802;16.114;2023-12-20T13:19:19;245.90;;;227.75;;
48623;SDS011;34422;45.802;16.114;2023-12-20T13:21:47;256.00;;;237.60;;
48623;SDS011;34422;45.802;16.114;2023-12-20T13:24:15;245.05;;;227.05;;
48623;SDS011;34422;45.802;16.114;2023-12-20T13:26:42;159.35;;;144.65;;
48623;SDS011;34422;45.802;16.114;2023-12-20T13:29:11;163.60;;;148.32;;
48623;SDS011;34422;45.802;16.114;2023-12-20T13:31:39;199.60;;;181.20;;
48623;SDS011;34422;45.802;16.114;2023-12-20T13:34:06;200.68;;;182.75;;
48623;SDS011;34422;45.802;16.114;2023-12-20T13:36:34;213.20;;;195.63;;
48623;SDS011;34422;45.802;16.114;2023-12-20T13:39:01;232.00;;;213.13;;
48623;SDS011;34422;45.802;16.114;2023-12-20T13:41:29;202.00;;;184.15;;
48623;SDS011;34422;45.802;16.114;2023-12-20T13:43:56;197.48;;;179.25;;
48623;SDS011;34422;45.802;16.114;2023-12-20T13:46:23;204.68;;;184.95;;
48623;SDS011;34422;45.802;16.114;2023-12-20T13:48:52;185.57;;;167.90;;
48623;SDS011;34422;45.802;16.114;2023-12-20T13:51:18;192.07;;;173.77;;
48623;SDS011;34422;45.802;16.114;2023-12-20T13:53:47;185.90;;;167.57;;
48623;SDS011;34422;45.802;16.114;2023-12-20T13:56:15;196.60;;;176.98;;
48623;SDS011;34422;45.802;16.114;2023-12-20T13:58:42;188.82;;;170.10;;
48623;SDS011;34422;45.802;16.114;2023-12-20T14:01:09;177.27;;;159.85;;
48623;SDS011;34422;45.802;16.114;2023-12-20T14:03:37;195.57;;;175.95;;
48623;SDS011;34422;45.802;16.114;2023-12-20T14:06:04;185.82;;;166.20;;
48623;SDS011;34422;45.802;16.114;2023-12-20T14:08:31;175.50;;;157.85;;
48623;SDS011;34422;45.802;16.114;2023-12-20T14:10:57;167.18;;;147.60;;
48623;SDS011;34422;45.802;16.114;2023-12-20T14:13:24;211.90;;;190.05;;
48623;SDS011;34422;45.802;16.114;2023-12-20T14:15:52;198.00;;;177.35;;
48623;SDS011;34422;45.802;16.114;2023-12-20T14:18:24;212.20;;;190.77;;
48623;SDS011;34422;45.802;16.114;2023-12-20T14:23:19;301.55;;;275.20;;
48623;SDS011;34422;45.802;16.114;2023-12-20T14:25:46;238.70;;;217.18;;
48623;SDS011;34422;45.802;16.114;2023-12-20T14:28:17;233.73;;;212.50;;
48623;SDS011;34422;45.802;16.114;2023-12-20T14:30:48;227.35;;;205.35;;
48623;SDS011;34422;45.802;16.114;2023-12-20T14:36:13;364.08;;;335.05;;
48623;SDS011;34422;45.802;16.114;2023-12-20T14:38:44;266.73;;;241.70;;
48623;SDS011;34422;45.802;16.114;2023-12-20T14:41:11;225.13;;;201.55;;
48623;SDS011;34422;45.802;16.114;2023-12-20T14:43:39;222.00;;;198.48;;
48623;SDS011;34422;45.802;16.114;2023-12-20T14:46:06;267.33;;;240.35;;
48623;SDS011;34422;45.802;16.114;2023-12-20T14:48:33;291.27;;;261.85;;
48623;SDS011;34422;45.802;16.114;2023-12-20T14:51:00;305.48;;;272.27;;
48623;SDS011;34422;45.802;16.114;2023-12-20T14:53:27;309.50;;;278.42;;
48623;SDS011;34422;45.802;16.114;2023-12-20T14:56:00;272.17;;;244.43;;
48623;SDS011;34422;45.802;16.114;2023-12-20T14:58:28;265.88;;;238.50;;
48623;SDS011;34422;45.802;16.114;2023-12-20T15:00:56;275.90;;;247.93;;
48623;SDS011;34422;45.802;16.114;2023-12-20T15:03:23;264.70;;;236.48;;
48623;SDS011;34422;45.802;16.114;2023-12-20T15:05:50;267.65;;;239.70;;
48623;SDS011;34422;45.802;16.114;2023-12-20T15:08:17;290.00;;;261.85;;
48623;SDS011;34422;45.802;16.114;2023-12-20T15:10:49;315.67;;;286.20;;
48623;SDS011;34422;45.802;16.114;2023-12-20T15:13:35;279.60;;;253.50;;
48623;SDS011;34422;45.802;16.114;2023-12-20T15:16:31;275.80;;;250.27;;
48623;SDS011;34422;45.802;16.114;2023-12-20T15:19:01;327.98;;;298.95;;
48623;SDS011;34422;45.802;16.114;2023-12-20T15:21:35;328.73;;;300.05;;
48623;SDS011;34422;45.802;16.114;2023-12-20T15:26:41;217.80;;;174.80;;
48623;SDS011;34422;45.802;16.114;2023-12-20T15:29:09;268.60;;;242.57;;
48623;SDS011;34422;45.802;16.114;2023-12-20T15:31:45;265.08;;;238.13;;
48623;SDS011;34422;45.802;16.114;2023-12-20T15:34:13;267.88;;;241.32;;
48623;SDS011;34422;45.802;16.114;2023-12-20T15:36:40;265.10;;;237.77;;
48623;SDS011;34422;45.802;16.114;2023-12-20T15:39:08;260.13;;;234.43;;
48623;SDS011;34422;45.802;16.114;2023-12-20T15:41:35;235.50;;;210.88;;
48623;SDS011;34422;45.802;16.114;2023-12-20T15:44:02;225.73;;;202.35;;
48623;SDS011;34422;45.802;16.114;2023-12-20T15:46:29;255.18;;;231.57;;
48623;SDS011;34422;45.802;16.114;2023-12-20T15:49:00;244.70;;;220.70;;
48623;SDS011;34422;45.802;16.114;2023-12-20T15:51:28;215.90;;;193.30;;
48623;SDS011;34422;45.802;16.114;2023-12-20T15:54:00;296.02;;;265.95;;
48623;SDS011;34422;45.802;16.114;2023-12-20T15:56:32;263.05;;;239.10;;
48623;SDS011;34422;45.802;16.114;2023-12-20T15:59:00;325.10;;;301.83;;
48623;SDS011;34422;45.802;16.114;2023-12-20T16:01:30;263.95;;;243.35;;
48623;SDS011;34422;45.802;16.114;2023-12-20T16:03:58;227.73;;;210.75;;
48623;SDS011;34422;45.802;16.114;2023-12-20T16:06:25;185.40;;;170.63;;
48623;SDS011;34422;45.802;16.114;2023-12-20T16:09:01;161.98;;;149.02;;
48623;SDS011;34422;45.802;16.114;2023-12-20T16:11:28;149.27;;;137.15;;
48623;SDS011;34422;45.802;16.114;2023-12-20T16:13:57;144.52;;;132.45;;
48623;SDS011;34422;45.802;16.114;2023-12-20T16:16:30;134.57;;;123.55;;
48623;SDS011;34422;45.802;16.114;2023-12-20T16:18:57;147.48;;;136.18;;
48623;SDS011;34422;45.802;16.114;2023-12-20T16:21:26;119.15;;;109.28;;
48623;SDS011;34422;45.802;16.114;2023-12-20T16:23:53;108.70;;;99.18;;
48623;SDS011;34422;45.802;16.114;2023-12-20T16:26:28;108.93;;;99.90;;
48623;SDS011;34422;45.802;16.114;2023-12-20T16:28:57;109.22;;;100.40;;
48623;SDS011;34422;45.802;16.114;2023-12-20T16:31:25;115.38;;;106.57;;
48623;SDS011;34422;45.802;16.114;2023-12-20T16:33:52;116.20;;;106.57;;
48623;SDS011;34422;45.802;16.114;2023-12-20T16:36:24;106.07;;;96.85;;
48623;SDS011;34422;45.802;16.114;2023-12-20T16:39:14;100.45;;;91.72;;
48623;SDS011;34422;45.802;16.114;2023-12-20T16:41:44;95.63;;;87.25;;
48623;SDS011;34422;45.802;16.114;2023-12-20T16:44:12;116.95;;;107.93;;
48623;SDS011;34422;45.802;16.114;2023-12-20T16:46:41;122.22;;;112.30;;
48623;SDS011;34422;45.802;16.114;2023-12-20T16:49:20;115.65;;;105.97;;
48623;SDS011;34422;45.802;16.114;2023-12-20T16:52:07;113.00;;;103.53;;
48623;SDS011;34422;45.802;16.114;2023-12-20T16:54:34;99.95;;;91.05;;
48623;SDS011;34422;45.802;16.114;2023-12-20T16:57:09;106.43;;;98.57;;